createdAt,value
2022-08-03T00:00:41.421Z,87.68
2022-08-03T00:03:11.760Z,87.94
2022-08-03T00:05:40.439Z,87.85
2022-08-03T00:08:29.250Z,87.80
2022-08-03T00:10:58.468Z,88.02
2022-08-03T00:13:27.677Z,87.96
2022-08-03T00:15:56.854Z,88.21
2022-08-03T00:18:27.005Z,88.31
2022-08-03T00:20:55.907Z,88.31
2022-08-03T00:23:24.631Z,88.15
2022-08-03T00:25:54.470Z,88.37
2022-08-03T00:28:23.295Z,88.16
2022-08-03T00:30:57.986Z,88.18
2022-08-03T00:33:28.226Z,88.21
2022-08-03T00:36:16.970Z,88.19
2022-08-03T00:38:51.472Z,88.13
2022-08-03T00:41:20.440Z,88.49
2022-08-03T00:43:49.644Z,88.42
2022-08-03T00:46:21.802Z,88.62
2022-08-03T00:48:53.394Z,88.31
2022-08-03T00:51:23.720Z,88.19
2022-08-03T00:53:52.971Z,88.36
2022-08-03T00:56:21.823Z,88.97
2022-08-03T00:58:54.486Z,88.69
2022-08-03T01:01:23.523Z,88.61
2022-08-03T01:03:53.770Z,88.35
2022-08-03T01:06:37.390Z,88.34
2022-08-03T01:09:17.947Z,88.47
2022-08-03T01:12:01.675Z,88.49
2022-08-03T01:14:41.850Z,88.59
2022-08-03T01:17:20.540Z,88.81
2022-08-03T01:20:01.863Z,89.03
2022-08-03T01:23:07.248Z,88.72
2022-08-03T01:25:56.777Z,88.81
2022-08-03T01:28:47.612Z,88.71
2022-08-03T01:31:30.220Z,88.81
2022-08-03T01:34:04.730Z,89.35
2022-08-03T01:36:44.697Z,89.54
2022-08-03T01:39:14.601Z,88.97
2022-08-03T01:41:52.165Z,89.21
2022-08-03T01:44:29.735Z,89.16
2022-08-03T01:47:03.554Z,89.09
2022-08-03T01:49:38.773Z,89.07
2022-08-03T01:52:10.278Z,89.21
2022-08-03T01:54:45.328Z,89.30
2022-08-03T01:57:16.445Z,88.94
2022-08-03T01:59:48.736Z,88.70
2022-08-03T02:02:32.975Z,88.98
2022-08-03T02:05:10.785Z,89.30
2022-08-03T02:07:43.462Z,88.86
2022-08-03T02:10:34.582Z,88.81
2022-08-03T02:13:08.681Z,88.80
2022-08-03T02:15:39.311Z,88.85
2022-08-03T02:18:14.550Z,89.27
2022-08-03T02:20:45.553Z,88.88
2022-08-03T02:23:17.289Z,89.05
2022-08-03T02:25:52.168Z,89.25
2022-08-03T02:28:23.547Z,88.68
2022-08-03T02:30:58.136Z,88.13
2022-08-03T02:33:35.388Z,87.30
2022-08-03T02:36:06.652Z,86.34
2022-08-03T02:38:40.171Z,85.49
2022-08-03T02:41:16.548Z,85.29
2022-08-03T02:44:06.515Z,84.40
2022-08-03T02:46:40.852Z,84.13
2022-08-03T02:49:40.899Z,83.41
2022-08-03T02:52:05.248Z,82.62
2022-08-03T02:54:37.321Z,82.19
2022-08-03T02:57:09.183Z,81.88
2022-08-03T02:59:41.446Z,81.94
2022-08-03T03:02:12.311Z,81.36
2022-08-03T03:05:50.640Z,80.99
2022-08-03T03:07:51.948Z,80.54
2022-08-03T03:10:23.317Z,80.37
2022-08-03T03:12:56.508Z,80.01
2022-08-03T03:15:29.739Z,79.74
2022-08-03T03:18:00.911Z,79.64
2022-08-03T03:20:33.958Z,79.00
2022-08-03T03:23:03.876Z,78.58
2022-08-03T03:25:34.205Z,79.14
2022-08-03T03:28:06.482Z,79.11
2022-08-03T03:30:36.001Z,79.34
2022-08-03T03:33:04.940Z,79.87
2022-08-03T03:35:38.771Z,80.39
2022-08-03T03:38:08.347Z,80.82
2022-08-03T03:40:37.652Z,81.34
2022-08-03T03:43:10.275Z,82.31
2022-08-03T03:45:41.639Z,82.56
2022-08-03T03:48:13.321Z,82.89
2022-08-03T03:50:45.181Z,82.99
2022-08-03T03:53:19.918Z,83.21
2022-08-03T03:56:02.040Z,83.44
2022-08-03T03:58:33.802Z,83.51
2022-08-03T04:01:02.980Z,83.59
2022-08-03T04:03:32.028Z,83.61
2022-08-03T04:06:19.676Z,83.98
2022-08-03T04:09:13.994Z,83.84
2022-08-03T04:11:50.218Z,83.94
2022-08-03T04:14:25.874Z,83.84
2022-08-03T04:17:02.683Z,83.99
2022-08-03T04:19:38.392Z,84.13
2022-08-03T04:22:13.703Z,84.04
2022-08-03T04:24:48.955Z,83.68
2022-08-03T04:27:23.638Z,83.64
2022-08-03T04:29:56.525Z,83.16
2022-08-03T04:32:28.851Z,83.04
2022-08-03T04:34:59.860Z,82.78
2022-08-03T04:37:40.051Z,82.59
2022-08-03T04:40:15.769Z,82.45
2022-08-03T04:42:45.619Z,82.60
2022-08-03T04:45:16.222Z,82.57
2022-08-03T04:47:45.792Z,82.60
2022-08-03T04:50:18.222Z,82.40
2022-08-03T04:53:09.096Z,82.33
2022-08-03T04:55:38.374Z,82.30
2022-08-03T04:58:07.606Z,82.34
2022-08-03T05:00:36.969Z,81.81
2022-08-03T05:03:20.414Z,81.65
2022-08-03T05:06:09.990Z,81.64
2022-08-03T05:08:50.779Z,81.63
2022-08-03T05:11:20.661Z,81.48
2022-08-03T05:13:49.744Z,81.02
2022-08-03T05:16:18.833Z,80.94
2022-08-03T05:18:47.674Z,80.99
2022-08-03T05:21:17.059Z,80.57
2022-08-03T05:23:50.415Z,80.64
2022-08-03T05:26:19.183Z,80.86
2022-08-03T05:28:51.337Z,80.72
2022-08-03T05:31:22.973Z,80.82
2022-08-03T05:33:52.192Z,80.64
2022-08-03T05:36:20.954Z,80.62
2022-08-03T05:38:51.036Z,80.45
2022-08-03T05:41:36.432Z,80.46
2022-08-03T05:44:09.079Z,80.21
2022-08-03T05:46:38.044Z,80.08
2022-08-03T05:49:07.019Z,79.82
2022-08-03T05:51:37.233Z,79.42
2022-08-03T05:54:07.462Z,79.39
2022-08-03T05:56:36.271Z,79.22
2022-08-03T05:59:28.665Z,79.14
2022-08-03T06:01:55.960Z,78.86
2022-08-03T06:04:24.733Z,78.69
2022-08-03T06:06:53.545Z,78.49
2022-08-03T06:09:23.660Z,78.14
2022-08-03T06:12:14.331Z,77.11
2022-08-03T06:14:43.417Z,76.10
2022-08-03T06:17:12.181Z,76.08
2022-08-03T06:19:41.541Z,75.74
2022-08-03T06:22:10.416Z,75.14
2022-08-03T06:24:41.716Z,74.78
2022-08-03T06:27:36.381Z,74.31
2022-08-03T06:30:08.737Z,73.99
2022-08-03T06:32:39.891Z,74.04
2022-08-03T06:35:16.414Z,73.99
2022-08-03T06:37:46.110Z,74.10
2022-08-03T06:40:21.832Z,73.87
2022-08-03T06:42:53.420Z,72.64
2022-08-03T06:45:22.761Z,71.37
2022-08-03T06:48:02.948Z,72.05
2022-08-03T06:50:32.215Z,72.03
2022-08-03T06:53:01.900Z,70.83
2022-08-03T06:55:32.900Z,71.24
2022-08-03T06:58:05.112Z,71.05
2022-08-03T07:00:34.136Z,71.00
2022-08-03T07:03:03.019Z,69.69
2022-08-03T07:05:33.619Z,69.39
2022-08-03T07:08:03.292Z,69.00
2022-08-03T07:10:34.039Z,68.36
2022-08-03T07:13:02.875Z,67.81
2022-08-03T07:15:55.241Z,67.65
2022-08-03T07:18:29.978Z,68.09
2022-08-03T07:20:59.435Z,67.25
2022-08-03T07:23:28.706Z,67.67
2022-08-03T07:25:58.846Z,67.75
2022-08-03T07:28:30.100Z,66.37
2022-08-03T07:30:59.581Z,64.61
2022-08-03T07:33:28.465Z,64.94
2022-08-03T07:36:00.167Z,64.41
2022-08-03T07:38:30.102Z,64.52
2022-08-03T07:41:00.360Z,63.62
2022-08-03T07:43:29.149Z,63.57
2022-08-03T07:45:57.881Z,61.26
2022-08-03T07:48:26.579Z,60.47
2022-08-03T07:50:55.598Z,58.91
2022-08-03T07:53:24.305Z,58.60
2022-08-03T07:55:53.033Z,59.17
2022-08-03T07:58:24.312Z,58.84
2022-08-03T08:00:54.094Z,58.80
2022-08-03T08:03:23.046Z,57.57
2022-08-03T08:05:51.828Z,58.32
2022-08-03T08:08:21.305Z,58.25
2022-08-03T08:10:58.416Z,57.57
2022-08-03T08:13:28.942Z,57.15
2022-08-03T08:15:57.990Z,57.97
2022-08-03T08:18:29.595Z,57.81
2022-08-03T08:21:01.627Z,58.26
2022-08-03T08:23:42.245Z,58.42
2022-08-03T08:26:12.879Z,57.93
2022-08-03T08:28:42.921Z,57.26
2022-08-03T08:31:11.728Z,56.64
2022-08-03T08:36:29.198Z,56.63
2022-08-03T08:38:58.039Z,56.35
2022-08-03T08:41:32.167Z,56.05
2022-08-03T08:44:03.068Z,56.39
2022-08-03T08:46:35.436Z,56.33
2022-08-03T08:49:04.970Z,56.25
2022-08-03T08:51:59.047Z,56.37
2022-08-03T08:54:27.974Z,56.48
2022-08-03T08:57:16.441Z,55.93
2022-08-03T08:59:57.437Z,55.70
2022-08-03T09:02:29.401Z,56.06
2022-08-03T09:05:07.608Z,55.88
2022-08-03T09:07:37.178Z,56.17
2022-08-03T09:10:12.796Z,56.02
2022-08-03T09:12:45.306Z,55.39
2022-08-03T09:15:26.786Z,55.96
2022-08-03T09:18:01.912Z,56.78
2022-08-03T09:20:34.801Z,57.37
2022-08-03T09:23:43.017Z,57.68
2022-08-03T09:26:01.826Z,58.70
2022-08-03T09:28:58.005Z,59.21
2022-08-03T09:31:35.860Z,58.13
2022-08-03T09:34:09.531Z,58.42
2022-08-03T09:36:44.773Z,58.36
2022-08-03T09:39:15.673Z,58.51
2022-08-03T09:41:48.606Z,58.38
2022-08-03T09:44:25.394Z,58.24
2022-08-03T09:46:57.872Z,58.03
2022-08-03T09:49:26.799Z,57.87
2022-08-03T09:52:33.607Z,58.15
2022-08-03T09:54:45.225Z,58.34
2022-08-03T09:57:24.334Z,57.85
2022-08-03T10:00:01.969Z,58.45
2022-08-03T10:02:44.261Z,58.36
2022-08-03T10:05:19.645Z,57.79
2022-08-03T10:07:53.720Z,57.28
2022-08-03T10:10:30.971Z,56.83
2022-08-03T10:13:02.299Z,56.49
2022-08-03T10:16:22.329Z,56.28
2022-08-03T10:18:22.723Z,56.83
2022-08-03T10:20:56.665Z,57.08
2022-08-03T10:23:27.910Z,56.96
2022-08-03T10:26:04.037Z,56.86
2022-08-03T10:28:44.301Z,55.73
2022-08-03T10:31:15.971Z,55.63
2022-08-03T10:33:53.022Z,56.10
2022-08-03T10:36:26.888Z,56.81
2022-08-03T10:38:58.276Z,56.87
2022-08-03T10:41:33.893Z,56.32
2022-08-03T10:44:08.234Z,56.28
2022-08-03T10:46:44.798Z,56.31
2022-08-03T10:49:32.821Z,56.44
2022-08-03T10:52:10.386Z,56.81
2022-08-03T10:55:03.341Z,56.60
2022-08-03T10:57:58.615Z,56.03
2022-08-03T11:00:30.633Z,55.68
2022-08-03T11:03:18.688Z,54.69
2022-08-03T11:05:50.287Z,54.65
2022-08-03T11:08:31.755Z,54.73
2022-08-03T11:11:25.086Z,54.95
2022-08-03T11:14:03.334Z,54.55
2022-08-03T11:16:36.219Z,54.27
2022-08-03T11:19:08.114Z,54.72
2022-08-03T11:21:59.296Z,54.87
2022-08-03T11:25:00.184Z,54.98
2022-08-03T11:27:37.677Z,54.94
2022-08-03T11:30:11.737Z,54.67
2022-08-03T11:33:00.015Z,54.80
2022-08-03T11:35:31.567Z,55.11
2022-08-03T11:38:11.707Z,54.90
2022-08-03T11:40:46.827Z,54.68
2022-08-03T11:43:47.496Z,54.79
2022-08-03T11:46:29.443Z,55.21
2022-08-03T11:49:10.460Z,55.30
2022-08-03T11:51:40.987Z,55.41
2022-08-03T11:54:11.520Z,55.06
2022-08-03T11:56:50.211Z,55.86
2022-08-03T11:59:22.298Z,55.50
2022-08-03T12:01:52.184Z,56.11
2022-08-03T12:04:21.229Z,55.99
2022-08-03T12:07:03.728Z,56.51
2022-08-03T12:09:36.308Z,57.15
2022-08-03T12:12:05.789Z,57.06
2022-08-03T12:14:49.684Z,56.56
2022-08-03T12:17:21.111Z,55.88
2022-08-03T12:19:50.103Z,55.34
2022-08-03T12:22:32.842Z,55.47
2022-08-03T12:25:07.297Z,55.40
2022-08-03T12:27:37.042Z,55.60
2022-08-03T12:30:07.645Z,55.41
2022-08-03T12:32:39.440Z,55.61
2022-08-03T12:35:10.275Z,55.63
2022-08-03T12:37:39.029Z,55.55
2022-08-03T12:40:17.830Z,55.10
2022-08-03T12:42:49.109Z,55.01
2022-08-03T12:45:25.421Z,55.30
2022-08-03T12:47:57.103Z,55.00
2022-08-03T12:50:28.877Z,55.39
2022-08-03T12:52:58.716Z,55.54
2022-08-03T12:55:56.200Z,55.45
2022-08-03T12:58:34.569Z,54.90
2022-08-03T13:01:09.191Z,54.17
2022-08-03T13:03:45.704Z,53.33
2022-08-03T13:06:27.922Z,53.61
2022-08-03T13:09:06.616Z,53.81
2022-08-03T13:11:57.258Z,53.94
2022-08-03T13:14:25.754Z,52.35
2022-08-03T13:16:55.346Z,52.53
2022-08-03T13:19:28.803Z,52.80
2022-08-03T13:22:04.455Z,52.85
2022-08-03T13:24:35.124Z,53.32
2022-08-03T13:28:02.022Z,53.06
2022-08-03T13:29:56.662Z,52.95
2022-08-03T13:32:26.391Z,52.43
2022-08-03T13:34:55.181Z,52.71
2022-08-03T13:37:35.009Z,53.27
2022-08-03T13:40:07.297Z,53.37
2022-08-03T13:42:38.952Z,53.09
2022-08-03T13:45:09.899Z,52.76
2022-08-03T13:47:39.026Z,52.91
2022-08-03T13:50:08.453Z,52.82
2022-08-03T13:52:37.931Z,52.41
2022-08-03T13:55:10.726Z,52.54
2022-08-03T13:58:12.144Z,52.55
2022-08-03T14:00:30.865Z,52.28
2022-08-03T14:03:13.131Z,52.62
2022-08-03T14:05:43.656Z,52.22
2022-08-03T14:08:13.933Z,52.45
2022-08-03T14:10:45.601Z,52.37
2022-08-03T14:13:16.777Z,51.86
2022-08-03T14:15:50.340Z,52.11
2022-08-03T14:18:29.223Z,51.98
2022-08-03T14:21:07.352Z,51.96
2022-08-03T14:23:38.766Z,52.06
2022-08-03T14:26:08.889Z,52.18
2022-08-03T14:28:39.280Z,51.89
2022-08-03T14:32:09.144Z,52.10
2022-08-03T14:33:57.410Z,51.34
2022-08-03T14:36:26.319Z,50.40
2022-08-03T14:38:59.370Z,50.08
2022-08-03T14:41:29.867Z,50.11
2022-08-03T14:44:01.472Z,49.44
2022-08-03T14:46:32.261Z,49.33
2022-08-03T14:50:30.829Z,49.43
2022-08-03T14:51:51.312Z,49.53
2022-08-03T14:54:23.069Z,48.82
2022-08-03T14:56:52.104Z,47.94
2022-08-03T14:59:22.230Z,47.90
2022-08-03T15:02:04.674Z,47.53
2022-08-03T15:04:36.416Z,46.51
2022-08-03T15:07:05.245Z,46.18
2022-08-03T15:09:34.338Z,46.22
2022-08-03T15:12:03.559Z,46.01
2022-08-03T15:14:34.947Z,46.30
2022-08-03T15:17:06.984Z,46.45
2022-08-03T15:20:01.596Z,46.02
2022-08-03T15:22:34.721Z,45.83
2022-08-03T15:26:03.664Z,46.44
2022-08-03T15:28:03.718Z,46.81
2022-08-03T15:30:37.093Z,46.55
2022-08-03T15:33:06.736Z,46.28
2022-08-03T15:35:35.772Z,46.02
2022-08-03T15:38:09.031Z,45.93
2022-08-03T15:40:38.818Z,46.29
2022-08-03T15:43:09.219Z,45.32
2022-08-03T15:45:41.895Z,44.75
2022-08-03T15:48:11.128Z,44.95
2022-08-03T15:50:39.997Z,44.65
2022-08-03T15:53:08.811Z,44.76
2022-08-03T15:55:37.502Z,43.73
2022-08-03T15:59:04.856Z,44.17
2022-08-03T16:00:56.996Z,43.60
2022-08-03T16:03:34.466Z,43.79
2022-08-03T16:06:04.950Z,43.42
2022-08-03T16:08:35.999Z,43.22
2022-08-03T16:11:04.772Z,42.75
2022-08-03T16:14:12.870Z,43.16
2022-08-03T16:16:24.052Z,44.32
2022-08-03T16:18:52.840Z,44.81
2022-08-03T16:21:22.029Z,46.41
2022-08-03T16:23:57.109Z,46.84
2022-08-03T16:26:28.864Z,47.21
2022-08-03T16:29:01.156Z,47.13
2022-08-03T16:31:31.649Z,46.25
2022-08-03T16:34:00.433Z,46.11
2022-08-03T16:36:34.690Z,45.42
2022-08-03T16:39:03.942Z,45.41
2022-08-03T16:41:53.873Z,45.41
2022-08-03T16:44:21.764Z,45.19
2022-08-03T16:46:52.365Z,45.00
2022-08-03T16:49:54.467Z,44.74
2022-08-03T16:52:10.531Z,44.95
2022-08-03T16:54:42.288Z,44.57
2022-08-03T16:57:11.028Z,43.76
2022-08-03T16:59:40.867Z,43.98
2022-08-03T17:02:26.140Z,43.93
2022-08-03T17:04:58.188Z,43.89
2022-08-03T17:07:29.615Z,44.17
2022-08-03T17:09:59.620Z,44.46
2022-08-03T17:12:32.262Z,45.04
2022-08-03T17:15:01.313Z,44.97
2022-08-03T17:17:47.534Z,45.29
2022-08-03T17:20:29.692Z,45.33
2022-08-03T17:23:34.577Z,45.32
2022-08-03T17:26:11.601Z,46.27
2022-08-03T17:28:52.127Z,47.52
2022-08-03T17:31:31.795Z,48.84
2022-08-03T17:34:04.285Z,50.07
2022-08-03T17:37:02.214Z,50.66
2022-08-03T17:39:48.475Z,51.90
2022-08-03T17:42:29.142Z,52.97
2022-08-03T17:45:03.923Z,53.63
2022-08-03T17:50:40.228Z,54.95
2022-08-03T17:53:23.547Z,55.52
2022-08-03T17:56:42.386Z,55.45
2022-08-03T17:59:08.223Z,55.22
2022-08-03T18:02:18.520Z,54.47
2022-08-03T18:05:16.751Z,54.77
2022-08-03T18:08:00.862Z,55.35
2022-08-03T18:10:46.811Z,55.79
2022-08-03T18:13:25.547Z,56.55
2022-08-03T18:16:04.461Z,57.29
2022-08-03T18:18:39.902Z,58.11
2022-08-03T18:21:16.654Z,59.13
2022-08-03T18:23:53.545Z,59.99
2022-08-03T18:26:30.626Z,60.40
2022-08-03T18:29:04.947Z,60.65
2022-08-03T18:32:02.784Z,61.42
2022-08-03T18:34:33.582Z,61.90
2022-08-03T18:37:08.095Z,62.66
2022-08-03T18:39:49.838Z,63.02
2022-08-03T18:42:25.723Z,63.42
2022-08-03T18:44:57.017Z,63.73
2022-08-03T18:47:52.282Z,64.47
2022-08-03T18:50:32.538Z,64.86
2022-08-03T18:53:19.380Z,65.18
2022-08-03T18:56:03.931Z,65.22
2022-08-03T18:58:46.083Z,65.64
2022-08-03T19:01:58.451Z,66.42
2022-08-03T19:04:36.674Z,66.14
2022-08-03T19:07:11.165Z,66.25
2022-08-03T19:09:54.519Z,66.91
2022-08-03T19:12:39.459Z,66.99
2022-08-03T19:15:13.247Z,67.23
2022-08-03T19:17:50.082Z,67.14
2022-08-03T19:20:25.094Z,67.84
2022-08-03T19:22:58.028Z,67.97
2022-08-03T19:25:35.240Z,68.28
2022-08-03T19:28:08.196Z,68.93
2022-08-03T19:30:40.484Z,69.37
2022-08-03T19:33:12.518Z,69.47
2022-08-03T19:35:46.638Z,70.24
2022-08-03T19:38:29.517Z,70.44
2022-08-03T19:41:04.065Z,70.44
2022-08-03T19:43:52.786Z,70.80
2022-08-03T19:46:30.678Z,70.95
2022-08-03T19:49:10.547Z,71.58
2022-08-03T19:51:58.994Z,71.89
2022-08-03T19:54:52.932Z,72.09
2022-08-03T19:57:28.613Z,72.44
2022-08-03T20:00:03.597Z,72.63
2022-08-03T20:02:36.841Z,73.14
2022-08-03T20:05:15.381Z,73.29
2022-08-03T20:07:53.627Z,73.44
2022-08-03T20:10:23.081Z,73.75
2022-08-03T20:12:52.690Z,74.29
2022-08-03T20:15:31.754Z,74.31
2022-08-03T20:18:02.586Z,74.56
2022-08-03T20:20:38.862Z,74.38
2022-08-03T20:23:15.586Z,74.87
2022-08-03T20:25:57.335Z,74.81
2022-08-03T20:28:49.639Z,75.04
2022-08-03T20:31:32.376Z,74.65
2022-08-03T20:34:09.132Z,74.83
2022-08-03T20:36:39.326Z,75.14
2022-08-03T20:39:10.972Z,74.93
2022-08-03T20:41:43.778Z,75.08
2022-08-03T20:44:12.672Z,75.28
2022-08-03T20:46:53.238Z,75.52
2022-08-03T20:49:30.362Z,75.27
2022-08-03T20:52:18.578Z,75.54
2022-08-03T20:54:49.090Z,75.99
2022-08-03T20:57:18.504Z,75.98
2022-08-03T20:59:51.440Z,76.00
2022-08-03T21:02:30.365Z,75.99
2022-08-03T21:05:08.658Z,76.38
2022-08-03T21:07:45.726Z,76.67
2022-08-03T21:10:39.834Z,76.64
2022-08-03T21:12:55.172Z,54.04
2022-08-03T21:16:04.781Z,76.62
2022-08-03T21:18:47.554Z,76.88
2022-08-03T21:21:19.858Z,76.82
2022-08-03T21:23:55.444Z,76.67
2022-08-03T21:26:27.813Z,76.97
2022-08-03T21:28:58.249Z,76.97
2022-08-03T21:31:27.294Z,77.41
2022-08-03T21:34:02.412Z,77.69
2022-08-03T21:36:34.165Z,77.88
2022-08-03T21:39:04.681Z,78.07
2022-08-03T21:41:34.542Z,78.23
2022-08-03T21:44:05.790Z,78.23
2022-08-03T21:46:38.721Z,78.25
2022-08-03T21:50:02.643Z,78.65
2022-08-03T21:52:05.356Z,78.93
2022-08-03T21:54:38.016Z,78.92
2022-08-03T21:57:14.284Z,78.97
2022-08-03T21:59:53.132Z,79.26
2022-08-03T22:02:25.937Z,79.22
2022-08-03T22:04:57.230Z,79.44
2022-08-03T22:07:27.543Z,79.53
2022-08-03T22:09:58.455Z,79.73
2022-08-03T22:12:36.723Z,80.11
2022-08-03T22:15:08.826Z,80.06
2022-08-03T22:17:55.986Z,80.45
2022-08-03T22:20:28.730Z,80.03
2022-08-03T22:23:02.439Z,80.39
2022-08-03T22:25:34.609Z,80.61
2022-08-03T22:28:08.222Z,80.38
2022-08-03T22:30:38.687Z,80.60
2022-08-03T22:33:12.021Z,80.72
2022-08-03T22:35:47.954Z,80.72
2022-08-03T22:38:18.819Z,80.94
2022-08-03T22:40:51.128Z,81.02
2022-08-03T22:43:25.290Z,80.67
2022-08-03T22:46:08.931Z,81.03
2022-08-03T22:48:41.885Z,81.24
2022-08-03T22:51:12.348Z,81.46
2022-08-03T22:53:42.073Z,81.49
2022-08-03T22:56:11.472Z,81.43
2022-08-03T22:58:40.242Z,81.53
2022-08-03T23:01:11.230Z,81.28
2022-08-03T23:03:59.332Z,81.62
2022-08-03T23:06:36.753Z,81.47
2022-08-03T23:09:09.641Z,81.35
2022-08-03T23:11:45.253Z,81.50
2022-08-03T23:14:17.633Z,81.85
2022-08-03T23:16:48.321Z,81.79
2022-08-03T23:19:25.061Z,81.91
2022-08-03T23:22:02.557Z,82.01
2022-08-03T23:24:37.006Z,82.21
2022-08-03T23:27:07.396Z,82.41
2022-08-03T23:29:38.638Z,82.42
2022-08-03T23:32:08.855Z,82.30
2022-08-03T23:34:59.036Z,82.47
2022-08-03T23:37:30.282Z,82.42
2022-08-03T23:40:00.572Z,82.74
2022-08-03T23:42:30.923Z,82.92
2022-08-03T23:45:05.503Z,82.61
2022-08-03T23:47:46.853Z,82.35
2022-08-03T23:50:17.255Z,82.78
2022-08-03T23:52:59.476Z,82.99
2022-08-03T23:55:46.637Z,82.90
2022-08-03T23:58:39.554Z,82.87
